Latest Weather Observations for Port Augusta

IDS60801

Issued at 7:05 pm CDT Saturday 1 November 2014 (issued every 30 minutes, with the page automatically refreshed every 10 minutes)

About weather observations | Map of weather stations | Latest weather observations for SA | Other Formats
Station Details ID: 018201 Name: PORT AUGUSTA AERO Lat: -32.51 Lon: 137.72 Height: 13.97 m
Data from the previous 72 hours. | See also: Recent months at Port Augusta
Date/Time
CDT
Temp
°C
App
Temp
°C
Dew
Point
Rel
Hum
%
Delta-T
°C
Wind Press
QNH
hPa
Press
MSL
hPa
Rain
since 9 am
mm
Dir
 
Spd
km/h
Gust
km/h
Spd
kts
Gust
kts
01/07:00pm 16.8 8.4 5.4 47 5.5 S 39 50 21 27 1019.8 - 0.0
01/06:30pm 17.6 8.5 4.2 41 6.3 SSE 41 56 22 30 1019.4 - 0.0
01/06:07pm 18.3 9.3 4.5 40 6.6 SSE 41 59 22 32 1018.9 - 0.0
01/06:00pm 18.6 9.3 5.1 41 6.5 SSE 43 56 23 30 1018.9 1018.9 0.0
01/05:30pm 18.7 9.6 5.9 43 6.3 SSE 43 54 23 29 1018.4 - 0.0
01/05:00pm 18.8 10.2 6.6 45 6.1 SSE 41 54 22 29 1018.3 - 0.0
01/04:31pm 19.3 10.4 6.8 44 6.3 SSE 43 61 23 33 1018.0 - 0.0
01/04:30pm 19.0 9.8 6.5 44 6.2 SSE 44 61 24 33 1017.9 - 0.0
01/04:00pm 19.1 10.1 7.2 46 6.0 SE 44 59 24 32 1017.6 - 0.0
01/03:45pm 19.4 10.9 6.8 44 6.3 SE 41 59 22 32 1017.7 - 0.0
01/03:30pm 19.9 11.0 7.0 43 6.5 SSE 43 57 23 31 1017.6 - 0.0
01/03:00pm 20.1 11.0 5.7 39 7.1 SSE 43 57 23 31 1017.4 1017.4 0.0
01/02:43pm 21.2 12.7 5.1 35 7.9 SSE 39 57 21 31 1017.4 - 0.0
01/02:39pm 19.5 10.9 6.3 42 6.6 SE 41 52 22 28 1017.5 - 0.0
01/02:36pm 21.5 13.9 5.8 36 7.9 S 35 54 19 29 1017.7 - 0.0
01/02:30pm 21.2 12.3 5.1 35 7.9 S 41 54 22 29 1017.7 - 0.0
01/02:11pm 22.3 15.0 5.3 33 8.5 S 33 52 18 28 1017.8 - 0.0
01/02:00pm 21.7 13.5 4.7 33 8.3 S 37 50 20 27 1017.5 - 0.0
01/01:30pm 21.2 12.8 5.5 36 7.8 S 39 59 21 32 1017.4 - 0.0
01/01:23pm 20.6 12.2 5.8 38 7.4 S 39 59 21 32 1017.2 - 0.0
01/01:00pm 21.1 13.2 6.2 38 7.5 S 37 50 20 27 1017.3 - 0.0
01/12:30pm 20.7 12.7 5.5 37 7.5 S 37 61 20 33 1017.1 - 0.0
01/12:29pm 21.3 13.3 5.6 36 7.8 S 37 57 20 31 1017.2 - 0.0
01/12:00pm 22.0 13.4 2.7 28 9.1 S 37 52 20 28 1017.0 1017.0 0.0
01/11:30am 21.5 13.2 4.1 32 8.4 SSW 37 54 20 29 1017.2 - 0.0
01/11:21am 20.9 13.2 3.2 31 8.4 SSW 33 54 18 29 1017.1 - 0.0
01/11:00am 19.9 11.9 3.6 34 7.7 S 35 52 19 28 1017.1 - 0.0
01/10:56am 20.0 11.9 3.3 33 7.9 S 35 54 19 29 1017.0 - 0.0
01/10:30am 19.4 10.7 4.0 36 7.3 S 39 50 21 27 1017.0 - 0.0
01/10:00am 18.7 9.5 3.3 36 7.2 S 41 50 22 27 1016.9 - 0.0
01/09:31am 18.7 10.9 4.8 40 6.7 S 35 54 19 29 1016.6 - 0.0
01/09:30am 18.2 9.9 4.4 40 6.6 S 37 54 20 29 1016.6 - 0.0
01/09:00am 17.4 9.8 4.0 41 6.3 SSW 33 43 18 23 1016.2 1016.2 0.0
01/08:30am 17.0 9.5 4.7 44 5.8 SSW 33 43 18 23 1015.7 - 0.0
01/08:00am 16.4 8.0 1.7 37 6.5 SSW 35 46 19 25 1015.4 - 0.0
01/07:30am 16.3 8.6 7.0 54 4.6 SW 37 50 20 27 1014.8 - 0.0
01/07:00am 15.6 9.7 7.4 58 4.1 SSW 28 37 15 20 1014.0 - 0.0
01/06:30am 16.0 10.8 9.0 63 3.6 SSW 26 37 14 20 1013.3 - 0.0
01/06:00am 16.3 12.5 9.9 66 3.4 SSW 20 30 11 16 1012.7 1012.7 0.0
01/05:30am 15.9 11.8 10.2 69 3.0 SW 22 33 12 18 1011.9 - 0.0
01/05:00am 16.6 12.5 10.0 65 3.5 SSW 22 32 12 17 1011.4 - 0.0
01/04:30am 16.6 13.4 9.8 64 3.6 S 17 26 9 14 1010.8 - 0.0
01/04:00am 16.4 11.8 9.8 65 3.5 SSW 24 32 13 17 1010.5 - 0.0
01/03:30am 16.8 10.1 9.7 63 3.7 S 35 46 19 25 1010.3 - 0.0
01/03:08am 17.0 11.1 10.6 66 3.4 S 32 50 17 27 1009.6 - 0.0
01/03:00am 17.4 12.5 12.5 73 2.7 S 30 39 16 21 1009.5 1009.5 0.0
01/02:30am 18.2 14.9 12.9 71 3.0 S 22 30 12 16 1009.1 - 0.0
01/02:00am 18.3 15.1 13.2 72 2.9 S 22 30 12 16 1008.7 - 0.0
01/01:30am 18.2 15.2 13.7 75 2.6 SSE 22 30 12 16 1008.5 - 0.0
01/01:00am 18.2 15.2 13.7 75 2.6 S 22 30 12 16 1008.6 - 0.0
01/12:30am 18.6 14.9 13.9 74 2.7 SSE 26 35 14 19 1008.0 - 0.0
01/12:00am 18.7 14.6 13.8 73 2.8 SSE 28 37 15 20 1008.9 1008.9 0.0
 
Date/Time
CDT
Temp
°C
App
Temp
°C
Dew
Point
Rel
Hum
%
Delta-T
°C
Wind Press
QNH
hPa
Press
MSL
hPa
Rain
since 9 am
mm
Dir
 
Spd
km/h
Gust
km/h
Spd
kts
Gust
kts
31/11:30pm 19.1 16.1 13.7 71 3.1 S 22 30 12 16 1008.3 - 0.0
31/11:00pm 19.2 15.0 13.4 69 3.3 SSE 28 37 15 20 1008.1 - 0.0
31/10:30pm 19.4 15.0 14.0 71 3.1 SE 30 43 16 23 1006.8 - 0.0
31/10:00pm 19.4 15.0 14.2 72 3.0 SE 30 39 16 21 1007.0 - 0.0
31/09:30pm 19.4 15.1 14.4 73 2.9 SE 30 39 16 21 1006.6 - 0.0
31/09:05pm 19.3 13.4 14.6 74 2.7 SE 39 57 21 31 1005.8 - 0.0
31/09:00pm 19.3 14.0 15.2 77 2.4 SE 37 54 20 29 1005.5 1005.5 0.0
31/08:42pm 19.7 15.3 15.6 77 2.4 SE 33 56 18 30 1004.6 - 0.0
31/08:30pm 21.4 16.4 15.0 67 3.8 SSE 35 50 19 27 1006.5 - 0.0
31/08:27pm 22.1 16.9 14.5 62 4.5 SSE 35 50 19 27 1006.5 - 0.0
31/08:00pm 22.6 15.6 13.7 57 5.2 S 43 56 23 30 1005.4 - 0.0
31/07:37pm 24.1 16.9 11.8 46 7.0 S 41 61 22 33 1004.1 - 0.0
31/07:30pm 23.8 17.4 13.1 51 6.2 SSE 39 54 21 29 1003.0 - 0.0
31/07:29pm 23.6 17.4 13.8 54 5.7 SSE 39 57 21 31 1002.9 - 0.0
31/07:00pm 23.9 17.7 13.7 53 6.0 SSE 39 50 21 27 1001.2 - 0.0
31/06:30pm 24.8 18.5 13.4 49 6.7 SE 39 57 21 31 1000.2 - 0.0
31/06:28pm 24.7 18.9 13.9 51 6.4 SE 37 57 20 31 1000.2 - 0.0
31/06:27pm 25.3 19.5 13.8 49 6.8 SSE 37 52 20 28 1000.3 - 0.0
31/06:00pm 30.6 24.2 5.1 20 13.4 SE 28 57 15 31 999.3 999.3 0.0
31/05:59pm 31.0 24.6 5.4 20 13.5 SE 28 57 15 31 999.3 - 0.0
31/05:53pm 32.9 27.8 6.2 19 14.4 SSE 22 35 12 19 999.2 - 0.0
31/05:30pm 38.1 31.4 3.8 12 18.3 NW 28 43 15 23 998.5 - 0.0
31/05:00pm 38.1 30.7 3.8 12 18.3 NW 32 44 17 24 998.8 - 0.0
31/04:46pm 37.1 30.5 4.1 13 17.6 NW 28 46 15 25 999.0 - 0.0
31/04:30pm 38.7 31.7 4.2 12 18.6 NW 30 44 16 24 999.0 - 0.0
31/04:00pm 36.7 29.7 5.9 15 16.9 WNW 32 50 17 27 999.4 - 0.0
31/03:34pm 37.0 30.8 6.1 15 17.0 NW 28 46 15 25 999.6 - 0.0
31/03:30pm 36.9 29.9 6.0 15 17.0 NW 32 46 17 25 999.6 - 0.0
31/03:00pm 38.2 31.0 6.0 14 17.9 NW 33 48 18 26 1000.1 1000.1 0.0
31/02:36pm 38.0 31.0 5.9 14 17.7 NNW 32 50 17 27 1000.6 - 0.0
31/02:30pm 37.8 30.6 5.7 14 17.6 NNW 33 46 18 25 1000.7 - 0.0
31/02:00pm 37.9 30.5 6.8 15 17.4 NW 35 48 19 26 1001.4 - 0.0
31/01:57pm 37.6 30.2 6.6 15 17.2 NW 35 48 19 26 1001.5 - 0.0
31/01:45pm 37.7 29.7 5.6 14 17.6 WNW 37 48 20 26 1001.6 - 0.0
31/01:30pm 38.1 30.3 4.9 13 18.0 NNW 35 54 19 29 1001.9 - 0.0
31/01:02pm 37.7 30.2 4.6 13 17.9 NNW 33 52 18 28 1002.4 - 0.0
31/01:00pm 37.8 30.3 4.7 13 17.9 NNW 33 48 18 26 1002.5 - 0.0
31/12:36pm 37.6 30.1 4.5 13 17.8 NNW 33 54 18 29 1003.1 - 0.0
31/12:30pm 37.1 29.7 5.2 14 17.3 N 33 50 18 27 1003.1 - 0.0
31/12:03pm 36.1 28.8 4.4 14 16.9 NNW 32 50 17 27 1003.8 - 0.0
31/12:00pm 36.8 29.4 4.9 14 17.3 NNW 33 46 18 25 1003.8 1003.8 0.0
31/11:30am 36.6 30.3 5.8 15 16.8 NNW 28 44 15 24 1004.2 - 0.0
31/11:00am 34.1 28.0 6.4 18 15.1 N 28 39 15 21 1004.6 - 0.0
31/10:30am 33.0 26.5 2.9 15 15.4 N 26 35 14 19 1004.9 - 0.0
31/10:00am 32.2 26.0 2.3 15 15.1 N 24 32 13 17 1005.1 - 0.0
31/09:30am 31.3 24.1 0.6 14 14.9 N 28 35 15 19 1005.4 - 0.0
31/09:00am 31.9 23.7 -1.0 12 15.7 N 32 43 17 23 1005.6 1005.6 0.0
31/08:30am 28.8 23.2 1.3 17 13.3 N 20 35 11 19 1005.8 - 0.0
31/08:00am 23.7 20.4 4.6 29 9.5 NNW 11 15 6 8 1005.8 - 0.0
31/07:30am 21.0 19.7 4.1 33 8.2 CALM 0 4 0 2 1005.8 - 0.0
31/07:00am 19.1 17.5 2.5 33 7.7 CALM 0 0 0 0 1005.6 - 0.0
31/06:30am 18.2 15.2 2.1 34 7.3 WNW 7 9 4 5 1005.9 - 0.0
31/06:00am 18.4 15.4 2.3 34 7.4 NNW 7 9 4 5 1005.9 1005.9 0.0
31/05:30am 18.3 15.5 1.8 33 7.5 WNW 6 7 3 4 1006.0 - 0.0
31/05:00am 18.2 16.3 0.8 31 7.7 CALM 0 0 0 0 1005.9 - 0.0
31/04:30am 17.8 15.9 0.5 31 7.6 CALM 0 0 0 0 1006.5 - 0.0
31/04:00am 18.4 16.6 1.0 31 7.7 CALM 0 0 0 0 1006.6 - 0.0
31/03:30am 18.5 16.1 -0.3 28 8.1 SW 2 6 1 3 1007.0 - 0.0
31/03:00am 18.9 16.8 -1.0 26 8.6 CALM 0 0 0 0 1007.3 1007.3 0.0
31/02:30am 18.2 15.5 0.4 30 7.8 WSW 4 7 2 4 1007.8 - 0.0
31/02:00am 17.1 13.5 0.3 32 7.3 S 9 9 5 5 1008.2 - 0.0
31/01:30am 20.7 17.7 4.3 34 7.9 SSE 9 13 5 7 1008.5 - 0.0
31/01:00am 20.3 18.5 8.0 45 6.4 ESE 7 11 4 6 1009.1 - 0.0
31/12:30am 20.0 17.7 4.9 37 7.4 E 6 7 3 4 1009.4 - 0.0
31/12:00am 21.6 18.8 2.3 28 9.1 SE 6 9 3 5 1009.7 1009.7 0.0
 
Date/Time
CDT
Temp
°C
App
Temp
°C
Dew
Point
Rel
Hum
%
Delta-T
°C
Wind Press
QNH
hPa
Press
MSL
hPa
Rain
since 9 am
mm
Dir
 
Spd
km/h
Gust
km/h
Spd
kts
Gust
kts
30/11:30pm 21.6 18.5 1.3 26 9.3 S 7 9 4 5 1009.9 - 0.0
30/11:00pm 22.3 17.1 5.3 33 8.5 ESE 22 30 12 16 1009.8 - 0.0
30/10:30pm 22.3 16.5 6.1 35 8.2 ESE 26 30 14 16 1010.0 - 0.0
30/10:00pm 22.8 18.1 7.8 38 7.9 ESE 22 28 12 15 1010.2 - 0.0
30/09:30pm 23.4 19.2 8.3 38 8.0 SE 20 30 11 16 1010.1 - 0.0
30/09:00pm 24.9 19.9 4.6 27 10.2 SE 20 26 11 14 1009.9 1009.9 0.0
30/08:30pm 26.3 21.1 0.1 18 12.2 SE 17 22 9 12 1009.7 - 0.0
30/08:00pm 26.3 22.3 4.7 25 10.9 SE 15 20 8 11 1009.6 - 0.0
30/07:30pm 28.3 23.2 3.2 20 12.5 SE 19 22 10 12 1009.6 - 0.0
30/07:00pm 28.6 23.6 3.5 20 12.6 SE 19 24 10 13 1009.6 - 0.0
30/06:30pm 29.0 24.0 3.8 20 12.8 SE 19 28 10 15 1009.7 - 0.0
30/06:00pm 29.3 24.5 5.4 22 12.5 SE 20 26 11 14 1009.8 1009.8 0.0
30/05:30pm 29.6 22.5 3.5 19 13.2 SSE 30 35 16 19 1009.8 - 0.0
30/05:00pm 29.5 22.8 5.6 22 12.5 SSE 30 37 16 20 1010.0 - 0.0
30/04:30pm 30.2 24.9 6.8 23 12.6 SE 24 33 13 18 1010.2 - 0.0
30/04:00pm 30.6 26.3 7.7 24 12.5 ESE 20 28 11 15 1010.6 - 0.0
30/03:30pm 29.9 25.2 7.7 25 12.1 SE 22 30 12 16 1011.1 - 0.0
30/03:00pm 30.1 26.3 9.1 27 11.7 ESE 19 24 10 13 1011.5 1011.5 0.0
30/02:30pm 30.2 27.2 9.1 27 11.8 ESE 15 20 8 11 1012.2 - 0.0
30/02:00pm 28.3 25.9 10.0 32 10.3 SE 13 20 7 11 1012.9 - 0.0
30/01:30pm 26.7 23.4 10.8 37 9.0 ESE 19 26 10 14 1013.4 - 0.0
30/01:00pm 25.8 22.2 11.9 42 8.0 SE 22 26 12 14 1013.7 - 0.0
30/12:30pm 25.5 22.0 13.4 47 7.1 ESE 24 30 13 16 1014.1 - 0.0
30/12:00pm 24.8 21.6 14.3 52 6.2 SE 24 30 13 16 1014.6 1014.6 0.0
30/11:30am 23.8 20.5 13.9 54 5.8 SE 24 32 13 17 1015.0 - 0.0
30/11:00am 23.9 21.8 13.7 53 6.0 ESE 17 24 9 13 1015.4 - 0.0
30/10:30am 22.9 21.0 14.2 58 5.1 ESE 17 20 9 11 1015.6 - 0.0
30/10:00am 21.4 18.9 14.1 63 4.2 ESE 20 24 11 13 1015.5 - 0.0
30/09:30am 19.9 17.9 14.0 69 3.4 ESE 17 24 9 13 1015.7 - 0.0
30/09:00am 19.9 16.6 12.7 63 4.1 SE 22 28 12 15 1015.8 1015.8 0.0
30/08:30am 18.8 14.0 12.8 68 3.4 SE 30 35 16 19 1015.7 - 0.0
30/08:00am 18.8 14.4 12.8 68 3.4 SSE 28 33 15 18 1015.5 - 0.0
30/07:30am 17.6 14.5 13.3 76 2.4 SSE 22 32 12 17 1015.4 - 0.0
30/07:00am 16.4 13.9 13.5 83 1.6 SE 19 24 10 13 1015.1 - 0.0
30/06:30am 15.6 13.7 12.9 84 1.5 SSE 15 19 8 10 1014.7 - 0.0
30/06:00am 15.4 14.3 12.0 80 1.8 SSE 9 13 5 7 1014.4 1014.4 0.0
30/05:30am 16.2 13.5 11.8 75 2.4 SSE 17 20 9 11 1014.4 - 0.0
30/05:00am 16.5 14.1 12.8 79 2.1 SSE 17 24 9 13 1014.4 - 0.0
30/04:30am 17.1 14.8 13.0 77 2.3 SSE 17 24 9 13 1014.7 - 0.0
30/04:00am 17.7 15.5 13.2 75 2.5 SSE 17 24 9 13 1014.6 - 0.0
30/03:30am 17.7 14.9 13.2 75 2.5 SSE 20 24 11 13 1014.7 - 0.0
30/03:00am 17.6 14.7 12.9 74 2.6 SSE 20 26 11 14 1014.8 1014.8 0.0
30/02:30am 18.1 14.9 13.2 73 2.8 SSE 22 32 12 17 1015.3 - 0.0
30/02:00am 18.2 15.4 12.6 70 3.1 SSE 19 24 10 13 1015.5 - 0.0
30/01:30am 18.7 15.7 12.5 67 3.5 SSE 20 26 11 14 1015.8 - 0.0
30/01:00am 18.9 15.8 12.2 65 3.7 SSE 20 28 11 15 1016.3 - 0.0
30/12:30am 19.0 15.4 11.8 63 4.0 SE 22 30 12 16 1016.4 - 0.0
30/12:00am 19.4 15.8 10.7 57 4.7 SE 20 28 11 15 1016.5 1016.5 0.0
 
Date/Time
CDT
Temp
°C
App
Temp
°C
Dew
Point
Rel
Hum
%
Delta-T
°C
Wind Press
QNH
hPa
Press
MSL
hPa
Rain
since 9 am
mm
Dir
 
Spd
km/h
Gust
km/h
Spd
kts
Gust
kts
29/11:30pm 19.7 17.0 10.4 55 5.0 SSE 15 20 8 11 1017.0 - 0.0
29/11:00pm 20.0 16.4 10.7 55 5.1 SSE 20 28 11 15 1016.9 - 0.0
29/10:30pm 20.2 16.7 10.9 55 5.1 S 20 30 11 16 1016.8 - 0.0
29/10:00pm 20.2 17.5 11.7 58 4.7 SSE 17 26 9 14 1016.3 - 0.0
29/09:30pm 20.6 18.2 11.5 56 5.0 SSE 15 24 8 13 1016.1 - 0.0
29/09:00pm 21.2 18.4 11.5 54 5.4 S 17 28 9 15 1015.8 1015.8 0.0
29/08:30pm 22.5 18.7 13.6 57 5.2 SE 26 37 14 20 1014.6 - 0.0
29/08:00pm 26.4 22.8 8.4 32 9.7 SE 17 26 9 14 1014.2 - 0.0
29/07:30pm 29.5 26.3 -0.8 14 14.2 WNW 6 9 3 5 1013.7 - 0.0

Other Formats:

Comma delimited format used in spreadsheet applications
http://www.bom.gov.au/fwo/IDS60801/IDS60801.95666.axf

JavaScript Object Notation format (JSON) in row-major order
http://www.bom.gov.au/fwo/IDS60801/IDS60801.95666.json